sensor_id;sensor_type;location;lat;lon;timestamp;pressure;altitude;pressure_sealevel;temperature;humidity
57056;BME280;42945;51.718;5.324;2022-07-19T00:00:40;101599.94;;;19.88;75.90
57056;BME280;42945;51.718;5.324;2022-07-19T00:03:07;101586.03;;;19.71;79.00
57056;BME280;42945;51.718;5.324;2022-07-19T00:05:33;101557.81;;;19.65;80.58
57056;BME280;42945;51.718;5.324;2022-07-19T00:07:58;101581.19;;;19.65;81.07
57056;BME280;42945;51.718;5.324;2022-07-19T00:10:23;101688.63;;;20.21;79.11
57056;BME280;42945;51.718;5.324;2022-07-19T00:12:49;101555.63;;;19.59;77.44
57056;BME280;42945;51.718;5.324;2022-07-19T00:15:15;101563.00;;;19.57;77.59
57056;BME280;42945;51.718;5.324;2022-07-19T00:17:43;101617.34;;;19.83;77.31
57056;BME280;42945;51.718;5.324;2022-07-19T00:20:10;101549.66;;;19.56;77.97
57056;BME280;42945;51.718;5.324;2022-07-19T00:22:35;101461.72;;;18.82;78.54
57056;BME280;42945;51.718;5.324;2022-07-19T00:25:01;101393.28;;;18.86;78.02
57056;BME280;42945;51.718;5.324;2022-07-19T00:27:26;101590.50;;;19.61;77.10
57056;BME280;42945;51.718;5.324;2022-07-19T00:29:51;101601.13;;;19.62;76.16
57056;BME280;42945;51.718;5.324;2022-07-19T00:32:16;101455.81;;;18.88;74.88
57056;BME280;42945;51.718;5.324;2022-07-19T00:34:42;101470.25;;;18.87;74.34
57056;BME280;42945;51.718;5.324;2022-07-19T00:37:07;101612.25;;;19.58;74.37
57056;BME280;42945;51.718;5.324;2022-07-19T00:39:33;101479.84;;;19.54;74.27
57056;BME280;42945;51.718;5.324;2022-07-19T00:41:58;101500.19;;;18.82;74.36
57056;BME280;42945;51.718;5.324;2022-07-19T00:44:23;101581.22;;;19.54;73.08
57056;BME280;42945;51.718;5.324;2022-07-19T00:46:49;101555.44;;;19.51;73.78
57056;BME280;42945;51.718;5.324;2022-07-19T00:49:15;101554.72;;;19.49;72.93
57056;BME280;42945;51.718;5.324;2022-07-19T00:51:41;101591.69;;;19.36;74.79
57056;BME280;42945;51.718;5.324;2022-07-19T00:54:11;101446.94;;;18.65;73.50
57056;BME280;42945;51.718;5.324;2022-07-19T00:56:37;101554.34;;;19.21;71.90
57056;BME280;42945;51.718;5.324;2022-07-19T00:59:03;101534.63;;;19.21;72.13
57056;BME280;42945;51.718;5.324;2022-07-19T01:01:29;101592.19;;;19.30;71.80
57056;BME280;42945;51.718;5.324;2022-07-19T01:03:56;101796.88;;;20.48;72.92
57056;BME280;42945;51.718;5.324;2022-07-19T01:06:21;101564.72;;;19.15;74.47
57056;BME280;42945;51.718;5.324;2022-07-19T01:08:47;101609.22;;;19.07;75.39
57056;BME280;42945;51.718;5.324;2022-07-19T01:11:13;101579.72;;;18.85;74.75
57056;BME280;42945;51.718;5.324;2022-07-19T01:13:38;101533.75;;;18.88;75.92
57056;BME280;42945;51.718;5.324;2022-07-19T01:16:04;101547.56;;;18.95;77.18
57056;BME280;42945;51.718;5.324;2022-07-19T01:18:29;101529.16;;;18.45;77.95
57056;BME280;42945;51.718;5.324;2022-07-19T01:20:57;101576.19;;;18.84;77.53
57056;BME280;42945;51.718;5.324;2022-07-19T01:23:22;101583.59;;;18.69;77.32
57056;BME280;42945;51.718;5.324;2022-07-19T01:25:48;101492.59;;;18.65;77.69
57056;BME280;42945;51.718;5.324;2022-07-19T01:28:13;101545.03;;;18.48;76.29
57056;BME280;42945;51.718;5.324;2022-07-19T01:30:39;101487.28;;;18.42;76.86
57056;BME280;42945;51.718;5.324;2022-07-19T01:33:04;101547.72;;;18.37;78.89
57056;BME280;42945;51.718;5.324;2022-07-19T01:35:29;101619.97;;;18.51;80.74
57056;BME280;42945;51.718;5.324;2022-07-19T01:37:55;101561.03;;;18.38;80.51
57056;BME280;42945;51.718;5.324;2022-07-19T01:40:23;101572.50;;;18.40;80.08
57056;BME280;42945;51.718;5.324;2022-07-19T01:42:49;101572.84;;;18.47;78.85
57056;BME280;42945;51.718;5.324;2022-07-19T01:45:15;101586.28;;;18.47;79.93
57056;BME280;42945;51.718;5.324;2022-07-19T01:47:41;101560.03;;;18.28;78.92
57056;BME280;42945;51.718;5.324;2022-07-19T01:50:09;101583.94;;;18.20;80.34
57056;BME280;42945;51.718;5.324;2022-07-19T01:52:34;101628.03;;;18.28;80.40
57056;BME280;42945;51.718;5.324;2022-07-19T01:55:00;101580.03;;;18.01;80.62
57056;BME280;42945;51.718;5.324;2022-07-19T01:57:25;101521.72;;;18.15;81.35
57056;BME280;42945;51.718;5.324;2022-07-19T01:59:52;101552.44;;;18.10;81.40
57056;BME280;42945;51.718;5.324;2022-07-19T02:02:17;101497.03;;;17.51;80.21
57056;BME280;42945;51.718;5.324;2022-07-19T02:04:42;101561.72;;;17.95;81.50
57056;BME280;42945;51.718;5.324;2022-07-19T02:07:08;101542.56;;;18.00;82.58
57056;BME280;42945;51.718;5.324;2022-07-19T02:09:33;101560.09;;;17.93;82.12
57056;BME280;42945;51.718;5.324;2022-07-19T02:11:58;101552.31;;;18.01;83.02
57056;BME280;42945;51.718;5.324;2022-07-19T02:14:24;101466.25;;;17.22;81.80
57056;BME280;42945;51.718;5.324;2022-07-19T02:16:49;101557.41;;;17.93;82.73
57056;BME280;42945;51.718;5.324;2022-07-19T02:19:14;101526.66;;;17.85;83.91
57056;BME280;42945;51.718;5.324;2022-07-19T02:21:40;101588.66;;;17.94;84.26
57056;BME280;42945;51.718;5.324;2022-07-19T02:24:06;101586.84;;;17.70;82.99
57056;BME280;42945;51.718;5.324;2022-07-19T02:26:32;101507.09;;;17.72;84.08
57056;BME280;42945;51.718;5.324;2022-07-19T02:28:58;101434.53;;;17.16;84.07
57056;BME280;42945;51.718;5.324;2022-07-19T02:31:23;101551.41;;;17.78;84.40
57056;BME280;42945;51.718;5.324;2022-07-19T02:33:49;101518.56;;;17.74;84.69
57056;BME280;42945;51.718;5.324;2022-07-19T02:36:15;101357.28;;;16.50;84.40
57056;BME280;42945;51.718;5.324;2022-07-19T02:38:40;101520.81;;;17.56;84.70
57056;BME280;42945;51.718;5.324;2022-07-19T02:41:05;101496.69;;;17.56;83.98
57056;BME280;42945;51.718;5.324;2022-07-19T02:43:31;101478.41;;;17.15;85.83
57056;BME280;42945;51.718;5.324;2022-07-19T02:45:56;101533.00;;;17.49;85.27
57056;BME280;42945;51.718;5.324;2022-07-19T02:48:21;101523.94;;;17.39;85.04
57056;BME280;42945;51.718;5.324;2022-07-19T02:50:47;101519.97;;;17.56;86.49
57056;BME280;42945;51.718;5.324;2022-07-19T02:53:12;101501.41;;;17.41;86.59
57056;BME280;42945;51.718;5.324;2022-07-19T02:55:38;101446.94;;;17.52;85.46
57056;BME280;42945;51.718;5.324;2022-07-19T02:58:03;101518.56;;;17.39;87.33
57056;BME280;42945;51.718;5.324;2022-07-19T03:00:29;101543.59;;;17.50;87.81
57056;BME280;42945;51.718;5.324;2022-07-19T03:02:55;101503.69;;;17.35;87.58
57056;BME280;42945;51.718;5.324;2022-07-19T03:05:41;101542.13;;;17.46;85.99
57056;BME280;42945;51.718;5.324;2022-07-19T03:08:06;101524.13;;;17.24;83.76
57056;BME280;42945;51.718;5.324;2022-07-19T03:10:32;101516.03;;;17.37;86.04
57056;BME280;42945;51.718;5.324;2022-07-19T03:12:57;101530.59;;;17.33;86.49
57056;BME280;42945;51.718;5.324;2022-07-19T03:15:23;101500.47;;;17.18;87.06
57056;BME280;42945;51.718;5.324;2022-07-19T03:17:48;101426.06;;;16.73;86.26
57056;BME280;42945;51.718;5.324;2022-07-19T03:20:13;101306.34;;;15.90;86.20
57056;BME280;42945;51.718;5.324;2022-07-19T03:22:38;101536.59;;;17.37;86.89
57056;BME280;42945;51.718;5.324;2022-07-19T03:25:04;101425.91;;;17.23;86.36
57056;BME280;42945;51.718;5.324;2022-07-19T03:27:29;101549.63;;;17.30;85.43
57056;BME280;42945;51.718;5.324;2022-07-19T03:29:55;101409.75;;;16.52;84.47
57056;BME280;42945;51.718;5.324;2022-07-19T03:32:20;101458.06;;;17.12;84.49
57056;BME280;42945;51.718;5.324;2022-07-19T03:34:45;101480.28;;;17.25;83.56
57056;BME280;42945;51.718;5.324;2022-07-19T03:37:11;101387.41;;;16.41;86.28
57056;BME280;42945;51.718;5.324;2022-07-19T03:39:36;101530.28;;;17.13;87.29
57056;BME280;42945;51.718;5.324;2022-07-19T03:42:01;101552.59;;;17.14;87.17
57056;BME280;42945;51.718;5.324;2022-07-19T03:44:26;101449.50;;;17.07;85.74
57056;BME280;42945;51.718;5.324;2022-07-19T03:46:52;101483.44;;;16.95;87.46
57056;BME280;42945;51.718;5.324;2022-07-19T03:49:17;101540.59;;;17.07;86.71
57056;BME280;42945;51.718;5.324;2022-07-19T03:51:43;101476.66;;;17.02;85.96
57056;BME280;42945;51.718;5.324;2022-07-19T03:54:08;101485.84;;;16.98;84.30
57056;BME280;42945;51.718;5.324;2022-07-19T03:56:33;101398.78;;;16.31;83.74
57056;BME280;42945;51.718;5.324;2022-07-19T03:58:59;101519.28;;;17.05;83.16
57056;BME280;42945;51.718;5.324;2022-07-19T04:01:24;101403.97;;;16.46;83.44
57056;BME280;42945;51.718;5.324;2022-07-19T04:03:49;101515.69;;;17.18;83.24
57056;BME280;42945;51.718;5.324;2022-07-19T04:06:14;101529.59;;;17.23;83.84
57056;BME280;42945;51.718;5.324;2022-07-19T04:08:40;101494.25;;;17.18;83.31
57056;BME280;42945;51.718;5.324;2022-07-19T04:11:05;101489.97;;;17.15;83.58
57056;BME280;42945;51.718;5.324;2022-07-19T04:13:35;101514.09;;;17.15;83.52
57056;BME280;42945;51.718;5.324;2022-07-19T04:16:00;101525.09;;;17.23;84.75
57056;BME280;42945;51.718;5.324;2022-07-19T04:18:26;101380.75;;;16.46;85.16
57056;BME280;42945;51.718;5.324;2022-07-19T04:20:51;101414.72;;;16.70;84.98
57056;BME280;42945;51.718;5.324;2022-07-19T04:23:17;101410.19;;;16.70;84.43
57056;BME280;42945;51.718;5.324;2022-07-19T04:25:43;101524.19;;;17.36;85.38
57056;BME280;42945;51.718;5.324;2022-07-19T04:28:08;101493.06;;;17.33;84.40
57056;BME280;42945;51.718;5.324;2022-07-19T04:30:33;101499.50;;;17.55;82.01
57056;BME280;42945;51.718;5.324;2022-07-19T04:32:59;101347.81;;;16.33;81.53
57056;BME280;42945;51.718;5.324;2022-07-19T04:35:24;101504.88;;;17.66;80.91
57056;BME280;42945;51.718;5.324;2022-07-19T04:37:50;101449.56;;;17.76;80.27
57056;BME280;42945;51.718;5.324;2022-07-19T04:40:16;101525.16;;;17.70;80.26
57056;BME280;42945;51.718;5.324;2022-07-19T04:42:41;101469.81;;;17.80;79.41
57056;BME280;42945;51.718;5.324;2022-07-19T04:45:07;101513.00;;;17.88;80.64
57056;BME280;42945;51.718;5.324;2022-07-19T04:47:32;101384.13;;;17.32;79.36
57056;BME280;42945;51.718;5.324;2022-07-19T04:49:57;101536.09;;;18.14;79.20
57056;BME280;42945;51.718;5.324;2022-07-19T04:52:23;101525.50;;;18.23;78.54
57056;BME280;42945;51.718;5.324;2022-07-19T04:54:48;101518.06;;;18.27;78.90
57056;BME280;42945;51.718;5.324;2022-07-19T04:57:13;101504.63;;;18.27;78.60
57056;BME280;42945;51.718;5.324;2022-07-19T04:59:39;101538.66;;;18.38;79.81
57056;BME280;42945;51.718;5.324;2022-07-19T05:02:05;101496.56;;;18.49;78.84
57056;BME280;42945;51.718;5.324;2022-07-19T05:04:30;101429.84;;;18.22;78.71
57056;BME280;42945;51.718;5.324;2022-07-19T05:06:55;101525.09;;;18.73;79.54
57056;BME280;42945;51.718;5.324;2022-07-19T05:09:24;101408.97;;;18.15;78.36
57056;BME280;42945;51.718;5.324;2022-07-19T05:11:51;101563.44;;;18.98;77.51
57056;BME280;42945;51.718;5.324;2022-07-19T05:14:16;101527.69;;;19.18;76.34
57056;BME280;42945;51.718;5.324;2022-07-19T05:16:42;101414.16;;;19.15;76.68
57056;BME280;42945;51.718;5.324;2022-07-19T05:19:07;101401.88;;;18.68;76.42
57056;BME280;42945;51.718;5.324;2022-07-19T05:21:32;101506.88;;;19.53;73.87
57056;BME280;42945;51.718;5.324;2022-07-19T05:23:58;101546.78;;;19.68;72.66
57056;BME280;42945;51.718;5.324;2022-07-19T05:26:23;101524.28;;;19.91;72.79
57056;BME280;42945;51.718;5.324;2022-07-19T05:28:48;101539.47;;;19.92;70.99
57056;BME280;42945;51.718;5.324;2022-07-19T05:31:13;101497.03;;;20.05;70.61
57056;BME280;42945;51.718;5.324;2022-07-19T05:33:39;101499.66;;;20.16;70.23
57056;BME280;42945;51.718;5.324;2022-07-19T05:36:04;101501.84;;;20.32;68.80
57056;BME280;42945;51.718;5.324;2022-07-19T05:38:30;101544.13;;;20.41;66.89
57056;BME280;42945;51.718;5.324;2022-07-19T05:40:59;101525.50;;;20.59;67.95
57056;BME280;42945;51.718;5.324;2022-07-19T05:43:25;101438.97;;;20.22;66.80
57056;BME280;42945;51.718;5.324;2022-07-19T05:45:51;101509.53;;;20.97;65.68
57056;BME280;42945;51.718;5.324;2022-07-19T05:48:16;101392.09;;;20.24;66.08
57056;BME280;42945;51.718;5.324;2022-07-19T05:50:42;101534.38;;;21.00;62.68
57056;BME280;42945;51.718;5.324;2022-07-19T05:53:07;101379.81;;;20.51;62.65
57056;BME280;42945;51.718;5.324;2022-07-19T05:55:33;101485.28;;;21.26;61.40
57056;BME280;42945;51.718;5.324;2022-07-19T05:57:58;101501.19;;;21.29;62.98
57056;BME280;42945;51.718;5.324;2022-07-19T06:00:23;101504.59;;;21.41;61.33
57056;BME280;42945;51.718;5.324;2022-07-19T06:02:48;101515.97;;;21.64;62.26
57056;BME280;42945;51.718;5.324;2022-07-19T06:05:14;101446.81;;;21.43;61.62
57056;BME280;42945;51.718;5.324;2022-07-19T06:07:40;101367.31;;;21.09;60.79
57056;BME280;42945;51.718;5.324;2022-07-19T06:10:06;101291.88;;;20.50;61.33
57056;BME280;42945;51.718;5.324;2022-07-19T06:12:31;101505.06;;;22.03;59.97
57056;BME280;42945;51.718;5.324;2022-07-19T06:14:57;101275.69;;;20.79;59.73
57056;BME280;42945;51.718;5.324;2022-07-19T06:17:22;101501.19;;;22.15;58.71
57056;BME280;42945;51.718;5.324;2022-07-19T06:19:47;101468.56;;;22.36;57.67
57056;BME280;42945;51.718;5.324;2022-07-19T06:22:12;101529.88;;;22.64;59.11
57056;BME280;42945;51.718;5.324;2022-07-19T06:24:38;101398.34;;;21.99;58.89
57056;BME280;42945;51.718;5.324;2022-07-19T06:27:03;101463.59;;;22.59;59.44
57056;BME280;42945;51.718;5.324;2022-07-19T06:29:28;101539.50;;;22.66;58.24
57056;BME280;42945;51.718;5.324;2022-07-19T06:31:54;101391.63;;;22.03;58.68
57056;BME280;42945;51.718;5.324;2022-07-19T06:34:28;101237.88;;;21.36;58.39
57056;BME280;42945;51.718;5.324;2022-07-19T06:36:57;101537.16;;;22.81;57.95
57056;BME280;42945;51.718;5.324;2022-07-19T06:39:22;101483.38;;;23.06;56.94
57056;BME280;42945;51.718;5.324;2022-07-19T06:41:50;101524.13;;;22.94;57.85
57056;BME280;42945;51.718;5.324;2022-07-19T06:44:16;101499.75;;;23.22;58.24
57056;BME280;42945;51.718;5.324;2022-07-19T06:46:41;101449.94;;;22.97;57.65
57056;BME280;42945;51.718;5.324;2022-07-19T06:49:06;101500.75;;;23.21;58.66
57056;BME280;42945;51.718;5.324;2022-07-19T06:51:35;101509.41;;;23.25;58.08
57056;BME280;42945;51.718;5.324;2022-07-19T06:56:42;101525.84;;;23.67;56.61
57056;BME280;42945;51.718;5.324;2022-07-19T06:59:22;101451.81;;;24.11;55.77
57056;BME280;42945;51.718;5.324;2022-07-19T07:01:48;101395.59;;;23.52;55.85
57056;BME280;42945;51.718;5.324;2022-07-19T07:04:16;101366.63;;;23.45;55.77
57056;BME280;42945;51.718;5.324;2022-07-19T07:06:42;101471.84;;;24.26;54.56
57056;BME280;42945;51.718;5.324;2022-07-19T07:09:07;101531.66;;;24.51;55.06
57056;BME280;42945;51.718;5.324;2022-07-19T07:11:33;101490.69;;;24.70;54.09
57056;BME280;42945;51.718;5.324;2022-07-19T07:13:58;101529.81;;;24.60;55.36
57056;BME280;42945;51.718;5.324;2022-07-19T07:16:24;101405.59;;;24.21;53.86
57056;BME280;42945;51.718;5.324;2022-07-19T07:18:53;101377.66;;;24.20;53.08
57056;BME280;42945;51.718;5.324;2022-07-19T07:21:18;101272.66;;;23.71;52.53
57056;BME280;42945;51.718;5.324;2022-07-19T07:23:44;101635.81;;;25.17;52.95
57056;BME280;42945;51.718;5.324;2022-07-19T07:26:10;101487.19;;;25.19;53.04
57056;BME280;42945;51.718;5.324;2022-07-19T07:28:39;101531.03;;;25.32;51.40
57056;BME280;42945;51.718;5.324;2022-07-19T07:31:16;101406.97;;;24.84;52.27
57056;BME280;42945;51.718;5.324;2022-07-19T07:33:42;101506.59;;;25.41;50.06
57056;BME280;42945;51.718;5.324;2022-07-19T07:36:15;101503.53;;;25.44;50.11
57056;BME280;42945;51.718;5.324;2022-07-19T07:39:05;101470.88;;;25.85;50.60
57056;BME280;42945;51.718;5.324;2022-07-19T07:41:30;101468.84;;;25.87;50.11
57056;BME280;42945;51.718;5.324;2022-07-19T07:44:02;101484.25;;;26.11;50.40
57056;BME280;42945;51.718;5.324;2022-07-19T07:46:59;101470.81;;;26.18;50.40
57056;BME280;42945;51.718;5.324;2022-07-19T07:49:25;101445.28;;;26.27;48.42
57056;BME280;42945;51.718;5.324;2022-07-19T07:51:51;101470.44;;;26.29;48.68
57056;BME280;42945;51.718;5.324;2022-07-19T07:54:17;101485.00;;;26.36;48.56
57056;BME280;42945;51.718;5.324;2022-07-19T07:56:43;101463.28;;;26.90;47.29
57056;BME280;42945;51.718;5.324;2022-07-19T07:59:11;101498.13;;;26.72;50.22
57056;BME280;42945;51.718;5.324;2022-07-19T08:01:45;101527.94;;;26.88;47.03
57056;BME280;42945;51.718;5.324;2022-07-19T08:04:11;101472.25;;;26.76;47.76
57056;BME280;42945;51.718;5.324;2022-07-19T08:06:36;101463.84;;;27.09;49.11
57056;BME280;42945;51.718;5.324;2022-07-19T08:09:03;101438.50;;;27.08;48.18
57056;BME280;42945;51.718;5.324;2022-07-19T08:11:29;101429.00;;;27.27;46.18
57056;BME280;42945;51.718;5.324;2022-07-19T08:13:55;101463.34;;;27.66;47.29
57056;BME280;42945;51.718;5.324;2022-07-19T08:16:20;101420.59;;;27.67;46.45
57056;BME280;42945;51.718;5.324;2022-07-19T08:18:46;101491.84;;;27.79;44.99
57056;BME280;42945;51.718;5.324;2022-07-19T08:21:11;101446.16;;;27.81;45.68
57056;BME280;42945;51.718;5.324;2022-07-19T08:23:37;101368.25;;;27.57;45.37
57056;BME280;42945;51.718;5.324;2022-07-19T08:26:05;101492.41;;;28.48;44.49
57056;BME280;42945;51.718;5.324;2022-07-19T08:28:30;101460.44;;;28.42;46.55
57056;BME280;42945;51.718;5.324;2022-07-19T08:30:56;101400.94;;;28.31;46.86
57056;BME280;42945;51.718;5.324;2022-07-19T08:33:21;101455.81;;;28.43;44.62
57056;BME280;42945;51.718;5.324;2022-07-19T08:35:46;101431.28;;;28.58;46.47
57056;BME280;42945;51.718;5.324;2022-07-19T08:38:12;101459.41;;;28.58;44.35
57056;BME280;42945;51.718;5.324;2022-07-19T08:40:41;101452.16;;;28.51;44.24
57056;BME280;42945;51.718;5.324;2022-07-19T08:43:08;101399.41;;;28.86;45.79
57056;BME280;42945;51.718;5.324;2022-07-19T08:45:34;101608.38;;;29.19;44.44
57056;BME280;42945;51.718;5.324;2022-07-19T08:48:04;101506.94;;;29.22;47.00
57056;BME280;42945;51.718;5.324;2022-07-19T08:50:33;101417.03;;;29.27;45.43
57056;BME280;42945;51.718;5.324;2022-07-19T08:53:05;101247.59;;;28.85;44.72
57056;BME280;42945;51.718;5.324;2022-07-19T08:55:39;101328.97;;;28.54;44.54
57056;BME280;42945;51.718;5.324;2022-07-19T08:58:05;101477.34;;;29.54;45.33
57056;BME280;42945;51.718;5.324;2022-07-19T09:00:32;101208.06;;;28.25;44.44
57056;BME280;42945;51.718;5.324;2022-07-19T09:02:59;101457.72;;;29.43;42.70
57056;BME280;42945;51.718;5.324;2022-07-19T09:05:25;101468.19;;;29.96;42.42
57056;BME280;42945;51.718;5.324;2022-07-19T09:08:08;101429.69;;;30.33;42.28
57056;BME280;42945;51.718;5.324;2022-07-19T09:10:37;101424.88;;;30.00;41.94
57056;BME280;42945;51.718;5.324;2022-07-19T09:16:03;101435.31;;;30.25;39.82
57056;BME280;42945;51.718;5.324;2022-07-19T09:18:31;101240.59;;;29.11;39.65
57056;BME280;42945;51.718;5.324;2022-07-19T09:20:58;101346.94;;;29.76;39.66
57056;BME280;42945;51.718;5.324;2022-07-19T09:23:24;101309.91;;;29.32;39.56
57056;BME280;42945;51.718;5.324;2022-07-19T09:25:55;101440.47;;;30.54;40.95
57056;BME280;42945;51.718;5.324;2022-07-19T09:28:22;101390.63;;;30.86;40.76
57056;BME280;42945;51.718;5.324;2022-07-19T09:30:53;101400.75;;;30.92;40.27
57056;BME280;42945;51.718;5.324;2022-07-19T09:33:23;101409.38;;;30.82;40.98
57056;BME280;42945;51.718;5.324;2022-07-19T09:35:52;101303.63;;;30.48;40.41
57056;BME280;42945;51.718;5.324;2022-07-19T09:38:26;101283.06;;;29.90;39.62
57056;BME280;42945;51.718;5.324;2022-07-19T09:43:51;101439.75;;;31.20;37.69
57056;BME280;42945;51.718;5.324;2022-07-19T09:49:11;101433.25;;;31.22;38.36
57056;BME280;42945;51.718;5.324;2022-07-19T09:51:50;101426.06;;;31.07;39.58
57056;BME280;42945;51.718;5.324;2022-07-19T09:54:18;101405.19;;;31.53;38.55
57056;BME280;42945;51.718;5.324;2022-07-19T09:56:45;101464.59;;;31.79;36.05
57056;BME280;42945;51.718;5.324;2022-07-19T09:59:11;101297.09;;;30.75;38.55
57056;BME280;42945;51.718;5.324;2022-07-19T10:01:37;101426.47;;;31.44;37.86
57056;BME280;42945;51.718;5.324;2022-07-19T10:04:23;101413.41;;;31.46;37.30
57056;BME280;42945;51.718;5.324;2022-07-19T10:06:50;101522.69;;;32.61;36.77
57056;BME280;42945;51.718;5.324;2022-07-19T10:09:18;101396.25;;;31.77;37.18
57056;BME280;42945;51.718;5.324;2022-07-19T10:11:44;101445.38;;;31.92;36.82
57056;BME280;42945;51.718;5.324;2022-07-19T10:14:10;101404.81;;;32.14;37.25
57056;BME280;42945;51.718;5.324;2022-07-19T10:19:56;101443.16;;;32.28;37.04
57056;BME280;42945;51.718;5.324;2022-07-19T10:22:24;101384.03;;;32.32;36.41
57056;BME280;42945;51.718;5.324;2022-07-19T10:32:38;101289.41;;;32.03;36.72
57056;BME280;42945;51.718;5.324;2022-07-19T10:38:14;101398.34;;;32.79;35.86
57056;BME280;42945;51.718;5.324;2022-07-19T10:40:53;101400.16;;;33.17;37.79
57056;BME280;42945;51.718;5.324;2022-07-19T10:43:23;101395.94;;;33.14;36.37
57056;BME280;42945;51.718;5.324;2022-07-19T10:50:59;101392.16;;;32.84;34.11
57056;BME280;42945;51.718;5.324;2022-07-19T10:56:41;101330.91;;;33.27;35.56
57056;BME280;42945;51.718;5.324;2022-07-19T10:59:09;101307.22;;;32.82;33.68
57056;BME280;42945;51.718;5.324;2022-07-19T11:01:36;101370.69;;;32.99;33.51
57056;BME280;42945;51.718;5.324;2022-07-19T11:04:28;101408.16;;;33.44;35.01
57056;BME280;42945;51.718;5.324;2022-07-19T11:07:32;101156.94;;;32.71;32.97
57056;BME280;42945;51.718;5.324;2022-07-19T11:09:58;101381.03;;;33.47;32.93
57056;BME280;42945;51.718;5.324;2022-07-19T11:12:26;101337.09;;;33.66;31.88
57056;BME280;42945;51.718;5.324;2022-07-19T11:14:52;101221.44;;;32.62;32.23
57056;BME280;42945;51.718;5.324;2022-07-19T11:17:18;100981.28;;;33.60;32.35
57056;BME280;42945;51.718;5.324;2022-07-19T11:20:09;101322.69;;;33.45;31.23
57056;BME280;42945;51.718;5.324;2022-07-19T11:22:41;101336.38;;;33.89;31.46
57056;BME280;42945;51.718;5.324;2022-07-19T11:25:07;101254.34;;;33.12;31.40
57056;BME280;42945;51.718;5.324;2022-07-19T11:27:33;101222.44;;;33.11;29.60
57056;BME280;42945;51.718;5.324;2022-07-19T11:30:01;101316.47;;;33.87;0.00
57056;BME280;42945;51.718;5.324;2022-07-19T11:32:26;101371.13;;;34.02;33.43
57056;BME280;42945;51.718;5.324;2022-07-19T11:35:05;101312.72;;;34.00;29.16
57056;BME280;42945;51.718;5.324;2022-07-19T11:37:33;101174.81;;;33.47;30.32
57056;BME280;42945;51.718;5.324;2022-07-19T11:39:59;101293.13;;;34.08;30.10
57056;BME280;42945;51.718;5.324;2022-07-19T11:42:45;101312.88;;;34.47;30.87
57056;BME280;42945;51.718;5.324;2022-07-19T11:47:42;101282.47;;;34.42;31.57
57056;BME280;42945;51.718;5.324;2022-07-19T11:50:09;101351.19;;;34.06;30.99
57056;BME280;42945;51.718;5.324;2022-07-19T11:53:01;101324.84;;;35.18;30.54
57056;BME280;42945;51.718;5.324;2022-07-19T11:55:34;101333.34;;;34.93;30.42
57056;BME280;42945;51.718;5.324;2022-07-19T11:58:05;101302.19;;;34.69;31.55
57056;BME280;42945;51.718;5.324;2022-07-19T12:00:35;101209.91;;;35.19;31.41
57056;BME280;42945;51.718;5.324;2022-07-19T12:03:05;101285.06;;;35.02;31.43
57056;BME280;42945;51.718;5.324;2022-07-19T12:05:35;101298.56;;;35.39;30.16
57056;BME280;42945;51.718;5.324;2022-07-19T12:08:07;101289.84;;;35.07;30.33
57056;BME280;42945;51.718;5.324;2022-07-19T12:10:39;101172.31;;;34.65;29.95
57056;BME280;42945;51.718;5.324;2022-07-19T12:13:08;101300.53;;;35.27;29.76
57056;BME280;42945;51.718;5.324;2022-07-19T12:15:54;101286.63;;;35.22;28.81
57056;BME280;42945;51.718;5.324;2022-07-19T12:18:45;101273.75;;;35.39;28.55
57056;BME280;42945;51.718;5.324;2022-07-19T12:21:22;101292.75;;;36.05;28.43
57056;BME280;42945;51.718;5.324;2022-07-19T12:26:36;101051.75;;;34.56;26.91
57056;BME280;42945;51.718;5.324;2022-07-19T12:29:18;101264.16;;;35.82;27.83
57056;BME280;42945;51.718;5.324;2022-07-19T12:31:44;101349.84;;;36.45;28.04
57056;BME280;42945;51.718;5.324;2022-07-19T12:34:11;101102.75;;;33.87;27.42
57056;BME280;42945;51.718;5.324;2022-07-19T12:36:40;101257.06;;;35.46;29.51
57056;BME280;42945;51.718;5.324;2022-07-19T12:39:20;101164.63;;;35.72;28.34
57056;BME280;42945;51.718;5.324;2022-07-19T12:44:28;101281.53;;;36.12;25.94
57056;BME280;42945;51.718;5.324;2022-07-19T12:46:54;101241.69;;;36.07;28.76
57056;BME280;42945;51.718;5.324;2022-07-19T12:49:20;101328.09;;;36.99;28.95
57056;BME280;42945;51.718;5.324;2022-07-19T12:51:46;101263.06;;;36.12;27.78
57056;BME280;42945;51.718;5.324;2022-07-19T12:54:12;101237.28;;;36.06;28.58
57056;BME280;42945;51.718;5.324;2022-07-19T12:56:38;101229.53;;;36.20;27.99
57056;BME280;42945;51.718;5.324;2022-07-19T12:59:04;101243.31;;;36.54;27.58
57056;BME280;42945;51.718;5.324;2022-07-19T13:01:48;101224.25;;;36.53;27.92
57056;BME280;42945;51.718;5.324;2022-07-19T13:04:19;101255.81;;;36.74;27.02
57056;BME280;42945;51.718;5.324;2022-07-19T13:06:47;101246.13;;;36.37;27.33
57056;BME280;42945;51.718;5.324;2022-07-19T13:09:12;101215.38;;;36.68;25.67
57056;BME280;42945;51.718;5.324;2022-07-19T13:11:37;101091.56;;;35.92;25.91
57056;BME280;42945;51.718;5.324;2022-07-19T13:14:03;101100.19;;;36.51;25.55
57056;BME280;42945;51.718;5.324;2022-07-19T13:16:31;101229.94;;;36.46;26.52
57056;BME280;42945;51.718;5.324;2022-07-19T13:18:57;101177.31;;;36.36;26.21
57056;BME280;42945;51.718;5.324;2022-07-19T13:21:22;101191.75;;;36.60;25.09
57056;BME280;42945;51.718;5.324;2022-07-19T13:23:48;101098.34;;;36.57;26.15
57056;BME280;42945;51.718;5.324;2022-07-19T13:26:13;101203.91;;;37.15;25.49
57056;BME280;42945;51.718;5.324;2022-07-19T13:28:39;101202.91;;;37.26;24.08
57056;BME280;42945;51.718;5.324;2022-07-19T13:31:04;101276.63;;;37.15;24.34
57056;BME280;42945;51.718;5.324;2022-07-19T13:33:30;100987.69;;;35.52;25.72